Time;durP1;ratioP1;P1;durP2;ratioP2;P2;SDS_P1;SDS_P2;PMS_P1;PMS_P2;Temp;Humidity;BMP_temperature;BMP_pressure;BME280_temperature;BME280_humidity;BME280_pressure;Samples;Min_cycle;Max_cycle;Signal;HPM_P1;HPM_P2
2021/04/01 00:00:12;;;;;;;8.10;3.50;;;9.40;98.50;;;10.53;98.89;98482.84;5093954;28;21003;-77
2021/04/01 00:02:40;;;;;;;5.43;3.40;;;9.40;98.60;;;10.65;97.86;98477.19;5094810;28;20839;-77
2021/04/01 00:05:09;;;;;;;14.33;3.60;;;9.60;98.30;;;10.47;98.78;98474.88;5093446;28;20455;-77
2021/04/01 00:07:37;;;;;;;5.53;3.00;;;9.40;98.50;;;10.54;98.11;98481.03;5088793;27;21184;-77
2021/04/01 00:10:12;;;;;;;7.50;3.63;;;9.50;98.40;;;10.52;97.62;98472.53;5101115;28;20497;-77
2021/04/01 00:12:40;;;;;;;9.77;3.60;;;9.50;98.20;;;10.39;99.25;98467.91;5092030;28;20459;-77
2021/04/01 00:15:12;;;;;;;6.30;3.37;;;9.30;98.50;;;10.38;100.00;98468.06;5091407;28;20825;-77
2021/04/01 00:17:41;;;;;;;9.83;3.40;;;9.30;98.80;;;10.33;99.48;98458.16;5083220;28;20793;-77
2021/04/01 00:20:14;;;;;;;5.30;3.00;;;9.20;98.50;;;10.33;100.00;98463.41;5092482;28;20549;-77
2021/04/01 00:22:43;;;;;;;6.37;3.30;;;9.20;98.90;;;10.28;99.85;98467.50;5091766;28;20513;-77
2021/04/01 00:25:16;;;;;;;7.60;3.20;;;9.20;98.70;;;10.35;99.58;98461.41;5089698;28;20462;-77
2021/04/01 00:27:43;;;;;;;11.07;3.97;;;9.30;98.80;;;10.28;100.00;98454.44;5099441;28;20451;-77
2021/04/01 00:30:14;;;;;;;5.20;2.90;;;9.20;99.00;;;10.26;99.57;98452.00;5087832;28;20483;-77
2021/04/01 00:32:42;;;;;;;12.70;3.10;;;9.20;98.70;;;10.18;99.88;98444.22;5092223;28;20459;-77
2021/04/01 00:35:11;;;;;;;4.70;2.90;;;9.20;98.90;;;10.10;100.00;98449.47;5091668;28;20959;-77
2021/04/01 00:37:39;;;;;;;3.50;2.63;;;9.10;98.70;;;10.02;100.00;98454.75;5091546;28;20454;-77
2021/04/01 00:40:09;;;;;;;9.20;3.80;;;9.00;99.20;;;9.92;100.00;98452.38;5085128;28;20566;-77
2021/04/01 00:42:38;;;;;;;7.03;3.37;;;8.90;99.50;;;9.82;100.00;98448.38;5089296;28;20784;-77
2021/04/01 00:45:09;;;;;;;4.30;2.77;;;8.70;99.80;;;9.91;100.00;98452.53;5090915;28;20888;-77
2021/04/01 00:47:39;;;;;;;8.93;3.97;;;8.80;99.90;;;9.91;100.00;98452.53;5080604;28;20510;-77
2021/04/01 00:50:12;;;;;;;8.80;3.23;;;8.90;99.90;;;9.81;100.00;98451.94;5092074;28;20662;-77
2021/04/01 00:52:40;;;;;;;7.40;3.23;;;8.80;99.90;;;9.86;100.00;98453.03;5091806;28;20455;-77
2021/04/01 00:55:10;;;;;;;5.50;3.43;;;8.80;99.90;;;9.84;100.00;98451.59;5086736;28;20466;-77
2021/04/01 00:57:41;;;;;;;5.30;3.30;;;8.80;99.80;;;9.77;100.00;98445.44;5090611;28;20555;-77
2021/04/01 01:00:13;;;;;;;6.13;3.10;;;8.70;99.90;;;9.72;100.00;98447.78;5083214;28;20491;-77
2021/04/01 01:02:42;;;;;;;4.93;3.57;;;8.60;99.90;;;9.79;100.00;98443.47;5081965;28;20510;-77
2021/04/01 01:05:13;;;;;;;6.00;2.90;;;8.70;99.90;;;9.66;100.00;98443.22;5080239;28;20970;-77
2021/04/01 01:07:42;;;;;;;9.17;3.20;;;8.50;99.90;;;9.50;100.00;98444.94;5089159;28;20539;-77
2021/04/01 01:10:14;;;;;;;4.93;3.00;;;8.40;99.90;;;9.54;100.00;98438.34;5089987;28;20499;-77
2021/04/01 01:12:42;;;;;;;11.73;3.43;;;8.50;99.90;;;9.59;100.00;98436.06;5087686;28;20460;-77
2021/04/01 01:15:12;;;;;;;7.10;3.30;;;8.50;99.90;;;9.60;100.00;98432.47;5088885;28;20467;-77
2021/04/01 01:17:41;;;;;;;12.60;4.33;;;8.50;99.90;;;9.46;100.00;98429.78;5087254;28;20486;-77
2021/04/01 01:20:10;;;;;;;5.20;3.40;;;8.40;99.90;;;9.55;100.00;98424.34;5086144;28;20807;-77
2021/04/01 01:22:50;;;;;;;8.40;3.93;;;8.40;99.90;;;9.55;100.00;98426.94;5089172;28;20963;-77
2021/04/01 01:25:21;;;;;;;8.00;3.97;;;8.40;99.90;;;9.55;100.00;98436.56;5089858;28;20516;-77
2021/04/01 01:27:49;;;;;;;6.70;3.50;;;8.50;99.90;;;9.42;100.00;98431.91;5088129;28;21081;-77
2021/04/01 01:30:21;;;;;;;7.47;3.20;;;8.40;99.90;;;9.30;100.00;98433.25;5091071;28;20993;-77
2021/04/01 01:32:55;;;;;;;11.20;4.20;;;8.30;99.90;;;9.39;100.00;98432.25;5090861;28;20463;-77
2021/04/01 01:35:26;;;;;;;9.23;3.80;;;8.30;99.90;;;9.34;100.00;98429.31;5091046;28;20452;-77
2021/04/01 01:37:56;;;;;;;9.27;3.90;;;8.30;99.90;;;9.44;100.00;98434.34;5085672;28;20456;-78
2021/04/01 01:40:28;;;;;;;6.80;3.37;;;8.40;99.90;;;9.42;100.00;98431.91;5090559;28;20482;-77
2021/04/01 01:42:59;;;;;;;6.20;3.53;;;8.40;99.90;;;9.47;100.00;98434.03;5086578;28;20980;-77
2021/04/01 01:45:28;;;;;;;13.60;4.10;;;8.40;99.90;;;9.41;100.00;98432.88;5089358;28;20459;-77
2021/04/01 01:47:57;;;;;;;6.87;3.17;;;8.30;99.90;;;9.23;100.00;98441.94;5091292;28;20866;-78
2021/04/01 01:50:29;;;;;;;7.93;3.20;;;8.10;99.90;;;9.25;100.00;98438.19;5091850;28;20494;-77
2021/04/01 01:52:57;;;;;;;6.97;3.30;;;8.20;99.90;;;9.26;100.00;98437.19;5092728;28;20463;-77
2021/04/01 01:55:28;;;;;;;9.03;3.97;;;8.30;99.90;;;9.20;100.00;98442.28;5088475;28;20459;-77
2021/04/01 01:57:56;;;;;;;12.83;3.17;;;8.10;99.90;;;9.17;100.00;98438.19;5090214;27;20455;-77
2021/04/01 02:00:27;;;;;;;4.63;3.73;;;8.10;99.90;;;9.10;100.00;98438.06;5088953;28;20458;-77
2021/04/01 02:02:58;;;;;;;7.30;3.50;;;8.00;99.90;;;9.13;100.00;98433.50;5092214;28;20459;-77
2021/04/01 02:05:27;;;;;;;4.10;2.40;;;8.00;99.90;;;9.08;100.00;98434.00;5096958;28;20465;-77
2021/04/01 02:07:56;;;;;;;5.77;3.33;;;8.00;99.90;;;9.03;100.00;98428.44;5092966;28;20455;-77
2021/04/01 02:10:28;;;;;;;6.17;3.17;;;8.00;99.90;;;8.90;100.00;98441.22;5087879;28;20485;-77
2021/04/01 02:12:57;;;;;;;13.77;3.20;;;7.80;99.90;;;8.92;100.00;98442.66;5083217;28;21067;-77
2021/04/01 02:15:27;;;;;;;7.70;3.17;;;7.80;99.90;;;8.94;100.00;98442.50;5092134;28;20455;-77
2021/04/01 02:18:04;;;;;;;15.50;4.00;;;7.80;99.90;;;8.98;100.00;98438.59;5089024;28;20467;-78
2021/04/01 02:20:38;;;;;;;5.07;3.20;;;8.00;99.90;;;8.98;100.00;98439.41;5095008;28;20467;-77
2021/04/01 02:23:08;;;;;;;6.97;3.10;;;8.00;99.90;;;8.89;100.00;98445.59;5086253;28;20841;-77
2021/04/01 02:25:37;;;;;;;4.70;2.83;;;7.90;99.90;;;8.70;100.00;98439.94;5090512;28;20474;-77
2021/04/01 02:28:06;;;;;;;6.37;3.20;;;7.60;99.90;;;8.74;100.00;98436.84;5086193;28;20462;-77
2021/04/01 02:30:33;;;;;;;6.47;3.17;;;7.60;99.90;;;8.70;100.00;98439.94;5082282;28;20900;-77
2021/04/01 02:33:02;;;;;;;19.03;2.93;;;7.60;99.90;;;8.59;100.00;98439.31;5087148;28;20498;-77
2021/04/01 02:35:30;;;;;;;9.17;3.83;;;7.60;99.90;;;8.62;100.00;98438.16;5081916;28;20521;-77
2021/04/01 02:37:57;;;;;;;3.77;2.90;;;7.70;99.90;;;8.59;100.00;98426.28;5090884;28;20498;-77
2021/04/01 02:40:26;;;;;;;4.70;3.13;;;7.60;99.90;;;8.64;100.00;98432.78;5086592;28;20483;-80
2021/04/01 02:42:55;;;;;;;7.10;3.17;;;7.70;99.90;;;8.71;100.00;98423.34;5085636;28;20948;-77
2021/04/01 02:45:23;;;;;;;4.83;3.27;;;7.80;99.90;;;8.72;100.00;98428.38;5087673;28;20455;-77
2021/04/01 02:47:50;;;;;;;4.40;3.50;;;7.70;99.90;;;8.58;100.00;98432.47;5087880;28;20462;-77
2021/04/01 02:50:19;;;;;;;6.80;3.90;;;7.50;99.90;;;8.57;100.00;98430.03;5085089;28;20502;-77
2021/04/01 02:52:46;;;;;;;6.50;3.40;;;7.50;99.90;;;8.58;100.00;98426.44;5086384;28;20509;-77
2021/04/01 02:55:15;;;;;;;3.10;2.70;;;7.60;99.90;;;8.65;100.00;98422.19;5085538;28;20803;-77
2021/04/01 02:57:43;;;;;;;6.50;3.37;;;7.70;99.90;;;8.69;100.00;98427.88;5083899;28;20543;-77
2021/04/01 03:00:18;;;;;;;5.57;3.40;;;7.60;99.90;;;8.72;100.00;98432.75;5083781;28;20532;-78
2021/04/01 03:02:49;;;;;;;6.50;2.90;;;7.70;99.90;;;8.75;100.00;98433.25;5084530;28;20947;-77
2021/04/01 03:05:17;;;;;;;8.40;3.53;;;7.80;99.90;;;8.76;100.00;98429.66;5087168;28;20850;-77
2021/04/01 03:07:44;;;;;;;6.83;3.63;;;7.80;99.90;;;8.79;100.00;98423.31;5095884;28;20455;-77
2021/04/01 03:10:14;;;;;;;4.53;2.73;;;7.80;99.90;;;8.83;100.00;98425.41;5091968;28;20530;-77
2021/04/01 03:12:42;;;;;;;6.07;3.17;;;7.90;99.90;;;8.77;100.00;98420.06;5092873;28;20516;-77
2021/04/01 03:15:11;;;;;;;7.47;2.87;;;7.80;99.90;;;8.78;100.00;98421.69;5095304;28;20566;-77
2021/04/01 03:17:43;;;;;;;4.00;3.03;;;7.80;99.90;;;8.71;100.00;98425.94;5086627;28;20467;-77
2021/04/01 03:20:12;;;;;;;4.87;3.00;;;7.70;99.90;;;8.75;100.00;98427.22;5087107;28;20563;-77
2021/04/01 03:22:41;;;;;;;4.37;3.10;;;7.80;99.90;;;8.67;100.00;98420.25;5086778;28;20467;-78
2021/04/01 03:25:12;;;;;;;13.23;3.00;;;7.60;99.90;;;8.66;100.00;98428.22;5094524;28;20461;-77
2021/04/01 03:27:40;;;;;;;6.13;3.27;;;7.70;99.90;;;8.64;100.00;98431.00;5088709;28;20950;-77
2021/04/01 03:30:12;;;;;;;4.80;3.20;;;7.60;99.90;;;8.66;100.00;98430.81;5097765;28;20535;-77
2021/04/01 03:32:43;;;;;;;4.80;2.77;;;7.60;99.90;;;8.69;100.00;98433.91;5087489;28;20462;-77
2021/04/01 03:35:14;;;;;;;4.27;3.20;;;7.70;99.90;;;8.61;100.00;98438.34;5090819;28;20450;-77
2021/04/01 03:37:44;;;;;;;7.40;3.20;;;7.60;99.90;;;8.60;100.00;98437.53;5088112;28;20459;-77
2021/04/01 03:40:13;;;;;;;9.83;3.00;;;7.70;99.90;;;8.57;100.00;98435.25;5089984;28;20494;-77
2021/04/01 03:42:41;;;;;;;7.50;4.10;;;7.60;99.90;;;8.53;100.00;98439.16;5086503;28;20946;-79
2021/04/01 03:45:15;;;;;;;19.17;6.80;;;7.50;99.90;;;8.54;100.00;98436.38;5087691;28;20466;-77
2021/04/01 03:47:44;;;;;;;5.83;3.50;;;7.70;99.90;;;8.57;100.00;98430.81;5094953;28;20445;-77
2021/04/01 03:50:14;;;;;;;11.03;3.83;;;7.60;99.90;;;8.54;100.00;98433.75;5091516;28;20494;-77
2021/04/01 03:52:43;;;;;;;5.87;3.83;;;7.60;99.90;;;8.50;100.00;98429.84;5093284;28;20462;-77
2021/04/01 03:55:27;;;;;;;12.60;3.47;;;7.50;99.90;;;8.48;100.00;98429.22;5093967;28;21120;-77
2021/04/01 03:57:59;;;;;;;5.13;3.80;;;7.50;99.90;;;8.49;100.00;98420.44;5091312;28;21023;-78
2021/04/01 04:00:28;;;;;;;5.47;3.30;;;7.50;99.90;;;8.48;100.00;98426.63;5087824;28;20480;-77
2021/04/01 04:03:05;;;;;;;6.70;3.23;;;7.50;99.90;;;8.40;100.00;98426.59;5095727;28;20469;-77
2021/04/01 04:05:40;;;;;;;6.30;3.50;;;7.50;99.90;;;8.40;100.00;98429.22;5094669;28;20599;-78
2021/04/01 04:08:30;;;;;;;9.53;3.53;;;7.40;99.90;;;8.37;100.00;98426.94;5089156;28;20459;-77
2021/04/01 04:11:04;;;;;;;5.60;3.10;;;7.30;99.90;;;8.38;100.00;98428.56;5084872;28;20504;-77
2021/04/01 04:13:36;;;;;;;9.37;3.23;;;7.50;99.90;;;8.35;100.00;98430.69;5093027;28;20481;-76
2021/04/01 04:16:05;;;;;;;7.30;3.50;;;7.60;99.90;;;8.27;100.00;98423.66;5090405;28;20501;-77
2021/04/01 04:18:33;;;;;;;5.43;3.50;;;7.40;99.90;;;8.32;100.00;98425.81;5092399;28;20459;-76
2021/04/01 04:21:01;;;;;;;4.37;2.90;;;7.40;99.90;;;8.32;100.00;98423.22;5083728;28;20542;-77
2021/04/01 04:23:29;;;;;;;7.03;2.97;;;7.40;99.90;;;8.30;100.00;98428.56;5094797;28;20950;-76
2021/04/01 04:25:57;;;;;;;7.20;3.10;;;7.30;99.90;;;8.29;100.00;98424.34;5092969;28;20435;-77
2021/04/01 04:28:31;;;;;;;11.47;4.57;;;7.40;99.90;;;8.25;100.00;98424.81;5095559;28;20462;-77
2021/04/01 04:30:59;;;;;;;10.70;3.17;;;7.30;99.90;;;8.20;100.00;98417.47;5090345;28;20498;-76
2021/04/01 04:33:27;;;;;;;5.03;3.13;;;7.30;99.90;;;8.16;100.00;98416.16;5090843;28;20920;-77
2021/04/01 04:35:56;;;;;;;4.47;3.50;;;7.20;99.90;;;8.17;100.00;98415.19;5085692;28;20467;-77
2021/04/01 04:38:25;;;;;;;9.00;4.77;;;7.20;99.90;;;8.15;100.00;98418.94;5087268;28;20452;-76
2021/04/01 04:40:56;;;;;;;6.37;3.30;;;7.10;99.90;;;8.16;100.00;98417.97;5087649;28;21002;-79
2021/04/01 04:43:25;;;;;;;5.53;3.40;;;7.20;99.90;;;8.12;100.00;98414.88;5087648;28;20493;-76
2021/04/01 04:45:54;;;;;;;8.07;2.90;;;7.20;99.90;;;8.13;100.00;98416.50;5087843;28;20463;-76
2021/04/01 04:48:23;;;;;;;3.73;2.57;;;7.10;99.90;;;8.18;100.00;98416.81;5097111;28;20856;-76
2021/04/01 04:50:51;;;;;;;6.70;3.30;;;7.20;99.90;;;8.14;100.00;98412.91;5096388;28;20494;-76
2021/04/01 04:53:20;;;;;;;5.40;3.37;;;7.20;99.90;;;8.13;100.00;98420.88;5096534;28;20775;-76
2021/04/01 04:55:59;;;;;;;5.50;3.33;;;7.10;99.90;;;8.15;100.00;98424.97;5090547;28;20467;-77
2021/04/01 04:58:32;;;;;;;6.43;3.40;;;7.10;99.90;;;8.18;100.00;98413.41;5086888;28;20447;-77
2021/04/01 05:01:10;;;;;;;12.40;4.10;;;7.20;99.90;;;8.11;100.00;98418.44;5088472;28;20798;-77
2021/04/01 05:09:07;;;;;;;4.43;3.23;;;7.10;99.90;;;8.09;100.00;98415.19;5085412;28;20865;-76
2021/04/01 05:11:34;;;;;;;6.73;3.53;;;7.10;99.90;;;8.07;100.00;98423.16;5079275;28;20456;-76
2021/04/01 05:14:03;;;;;;;4.47;3.13;;;7.00;99.90;;;8.10;100.00;98415.03;5092489;28;20462;-77
2021/04/01 05:16:31;;;;;;;19.37;3.30;;;7.10;99.90;;;8.09;100.00;98413.38;5082350;28;20669;-77
2021/04/01 05:18:59;;;;;;;12.50;3.90;;;7.00;99.90;;;8.00;100.00;98416.16;5083316;28;20440;-77
2021/04/01 05:21:32;;;;;;;4.57;3.27;;;6.90;99.90;;;8.04;100.00;98415.69;5091414;28;20436;-77
2021/04/01 05:24:01;;;;;;;8.73;2.70;;;7.00;99.90;;;8.09;100.00;98421.22;5091105;28;20443;-77
2021/04/01 05:26:51;;;;;;;6.20;3.67;;;7.10;99.90;;;8.13;100.00;98421.69;5090181;28;20463;-77
2021/04/01 05:29:21;;;;;;;7.50;3.40;;;7.10;99.90;;;8.18;100.00;98429.03;5093086;28;20490;-77
2021/04/01 05:31:49;;;;;;;3.63;2.93;;;7.20;99.90;;;8.09;100.00;98425.59;5093293;28;20505;-77
2021/04/01 05:34:17;;;;;;;13.67;2.80;;;7.00;99.90;;;8.09;100.00;98430.81;5092739;28;20452;-77
2021/04/01 05:36:46;;;;;;;4.30;2.90;;;7.00;99.90;;;8.12;100.00;98434.91;5083327;28;20446;-77
2021/04/01 05:39:17;;;;;;;6.13;3.57;;;7.10;99.90;;;8.04;100.00;98436.50;5093601;28;20535;-76
2021/04/01 05:41:49;;;;;;;7.87;4.23;;;7.00;99.90;;;8.04;100.00;98443.50;5091670;28;20479;-76
2021/04/01 05:44:20;;;;;;;8.57;4.10;;;7.00;99.90;;;8.05;100.00;98443.34;5090495;28;20805;-76
2021/04/01 05:46:54;;;;;;;9.17;3.27;;;7.00;99.90;;;8.03;100.00;98445.28;5078209;28;21079;-76
2021/04/01 05:49:36;;;;;;;5.67;3.03;;;7.00;99.90;;;8.06;100.00;98442.38;5082086;28;20501;-76
2021/04/01 05:58:40;;;;;;;5.10;3.17;;;7.10;99.90;;;8.14;100.00;98444.16;5085918;28;20460;-75
2021/04/01 06:04:09;;;;;;;10.00;3.60;;;7.20;99.90;;;8.23;100.00;98440.59;5084782;28;20942;-76
2021/04/01 06:06:43;;;;;;;7.97;3.17;;;7.20;99.90;;;8.11;100.00;98439.28;5091016;28;20923;-76
2021/04/01 06:09:20;;;;;;;7.10;3.47;;;7.00;99.90;;;8.03;100.00;98442.69;5098119;28;20446;-76
2021/04/01 06:11:52;;;;;;;6.67;3.33;;;7.00;99.90;;;8.01;100.00;98443.84;5091573;28;20435;-76
2021/04/01 06:15:00;;;;;;;6.67;3.40;;;7.10;99.90;;;8.04;100.00;98448.72;5092075;28;20463;-76
2021/04/01 06:17:33;;;;;;;7.27;3.83;;;7.10;99.90;;;8.06;100.00;98452.78;5086905;28;20460;-76
2021/04/01 06:20:04;;;;;;;4.13;3.20;;;7.00;99.90;;;8.10;100.00;98448.06;5091364;28;20487;-76
2021/04/01 06:22:32;;;;;;;7.67;3.77;;;7.20;99.90;;;8.14;100.00;98448.56;5089931;28;20432;-76
2021/04/01 06:25:00;;;;;;;12.40;3.10;;;7.20;99.90;;;8.16;100.00;98446.63;5091680;28;20778;-76
2021/04/01 06:27:36;;;;;;;5.47;3.20;;;7.20;99.90;;;8.21;100.00;98447.75;5091750;28;20439;-76
2021/04/01 06:30:13;;;;;;;12.73;4.00;;;7.30;99.90;;;8.24;100.00;98447.44;5091749;28;20494;-76
2021/04/01 06:32:44;;;;;;;5.90;3.60;;;7.40;99.90;;;8.19;100.00;98449.69;5084738;28;20969;-76
2021/04/01 06:35:20;;;;;;;7.33;3.50;;;7.30;99.90;;;8.16;100.00;98450.03;5092109;28;20439;-76
2021/04/01 06:40:55;;;;;;;4.13;3.00;;;7.30;99.90;;;8.31;100.00;98451.03;5088133;28;20486;-76
2021/04/01 06:43:50;;;;;;;8.73;3.33;;;7.60;99.90;;;8.37;100.00;98452.19;5089512;28;20461;-76
2021/04/01 06:46:20;;;;;;;16.57;3.67;;;7.70;99.90;;;8.40;100.00;98455.28;5088813;28;20843;-76
2021/04/01 06:51:48;;;;;;;4.27;3.00;;;7.60;99.90;;;8.47;100.00;98455.44;5090638;27;21036;-76
2021/04/01 06:54:28;;;;;;;8.13;3.20;;;7.60;99.90;;;8.54;100.00;98451.19;5091648;28;20450;-76
2021/04/01 06:57:32;;;;;;;5.07;3.20;;;7.60;99.90;;;8.65;100.00;98458.69;5085532;28;20444;-76
2021/04/01 07:00:32;;;;;;;4.77;3.17;;;7.70;99.90;;;8.75;100.00;98455.91;5088908;28;20931;-76
2021/04/01 07:03:15;;;;;;;8.77;3.47;;;7.80;99.90;;;8.81;100.00;98452.66;5088969;28;20446;-76
2021/04/01 07:05:56;;;;;;;6.87;3.67;;;7.80;99.90;;;8.92;100.00;98454.91;5088557;28;20454;-76
2021/04/01 07:08:41;;;;;;;7.47;3.60;;;8.00;99.90;;;8.97;100.00;98453.44;5090693;28;20863;-77
2021/04/01 07:11:10;;;;;;;11.83;3.93;;;8.00;99.90;;;9.10;100.00;98464.16;5085077;28;20487;-77
2021/04/01 07:13:48;;;;;;;12.53;3.07;;;8.10;99.90;;;9.24;100.00;98449.59;5092237;28;20880;-76
2021/04/01 07:16:26;;;;;;;4.30;3.03;;;8.30;99.90;;;9.36;100.00;98450.03;5091106;28;20451;-76
2021/04/01 07:35:54;;;;;;;5.90;3.70;;;9.20;99.90;;;10.16;100.00;98440.97;5087830;28;20451;-76
2021/04/01 07:46:58;;;;;;;5.93;3.50;;;9.70;99.90;;;10.58;100.00;98438.69;5091199;28;20443;-76
2021/04/01 07:49:29;;;;;;;12.17;3.80;;;9.80;99.90;;;10.66;100.00;98427.31;5091631;28;20463;-77
2021/04/01 07:52:08;;;;;;;10.93;3.90;;;9.90;99.90;;;10.76;100.00;98435.72;5091720;28;20444;-77
2021/04/01 07:58:02;;;;;;;6.17;3.83;;;10.10;99.90;;;10.97;100.00;98440.25;5094330;28;20451;-77
2021/04/01 08:00:37;;;;;;;11.00;4.30;;;10.20;99.90;;;11.07;100.00;98431.13;5090666;28;20454;-77
2021/04/01 08:03:51;;;;;;;12.73;3.77;;;10.30;99.90;;;11.19;100.00;98434.13;5095478;28;20450;-77
2021/04/01 08:06:10;;;;;;;12.10;3.23;;;10.40;99.90;;;11.30;100.00;98431.06;5090995;28;20470;-77
2021/04/01 08:08:47;;;;;;;8.60;4.33;;;10.60;99.90;;;11.41;100.00;98429.78;5093019;28;20501;-77
2021/04/01 08:11:28;;;;;;;8.63;3.80;;;10.70;99.90;;;11.52;100.00;98429.31;5094063;28;20502;-76
2021/04/01 08:14:09;;;;;;;7.37;3.60;;;10.90;99.90;;;11.63;100.00;98430.66;5092193;28;20558;-76
2021/04/01 08:16:44;;;;;;;10.30;3.53;;;11.00;99.90;;;11.74;99.83;98419.69;5094975;28;20446;-77
2021/04/01 08:19:15;;;;;;;5.60;3.30;;;11.10;99.90;;;11.85;98.41;98424.47;5094721;28;20451;-77
2021/04/01 08:22:05;;;;;;;17.00;3.70;;;11.30;99.90;;;11.96;96.65;98419.56;5095854;28;20451;-76
2021/04/01 08:25:00;;;;;;;23.80;3.60;;;11.40;99.60;;;12.08;96.32;98415.44;5094153;28;20512;-77
2021/04/01 08:27:56;;;;;;;16.33;4.23;;;11.50;99.50;;;12.24;95.94;98418.81;5084867;28;20515;-77
2021/04/01 08:34:17;;;;;;;10.80;3.87;;;11.80;99.40;;;12.52;95.18;98427.53;5091895;28;20436;-77
2021/04/01 08:37:08;;;;;;;8.70;3.10;;;12.00;99.40;;;12.65;94.91;98429.44;5098435;28;20520;-77
2021/04/01 08:39:59;;;;;;;9.77;4.30;;;12.10;99.30;;;12.78;94.72;98426.91;5094929;28;20546;-77
2021/04/01 08:43:39;;;;;;;7.73;3.70;;;12.20;99.20;;;12.91;94.50;98416.50;5087618;28;20532;-77
2021/04/01 08:46:45;;;;;;;7.27;4.20;;;12.40;99.20;;;13.06;94.10;98417.19;5093294;28;20489;-77
2021/04/01 08:49:40;;;;;;;7.93;4.10;;;12.60;99.10;;;13.19;93.72;98414.66;5093579;28;20473;-77
2021/04/01 08:52:55;;;;;;;7.73;3.43;;;12.70;99.00;;;13.32;93.24;98416.56;5085505;28;20771;-77
2021/04/01 08:55:36;;;;;;;15.60;2.93;;;12.80;99.00;;;13.40;92.74;98404.06;5085815;28;20486;-77
2021/04/01 08:58:17;;;;;;;13.60;3.73;;;12.90;99.00;;;13.52;92.14;98399.06;5092103;28;20478;-77
2021/04/01 09:00:45;;;;;;;14.10;3.40;;;13.00;98.60;;;13.61;91.46;98393.41;5092385;28;20447;-77
2021/04/01 09:03:15;;;;;;;6.37;3.37;;;13.10;98.50;;;13.71;91.22;98387.00;5093138;28;20485;-77
2021/04/01 09:05:54;;;;;;;11.53;3.63;;;13.20;98.50;;;13.83;91.00;98395.91;5088838;28;20543;-78
2021/04/01 09:08:28;;;;;;;6.50;3.00;;;13.30;98.30;;;13.93;90.23;98384.00;5088520;28;20954;-77
2021/04/01 09:11:00;;;;;;;9.30;3.43;;;13.40;98.20;;;14.05;89.94;98385.03;5092679;28;21024;-78
2021/04/01 09:13:31;;;;;;;10.30;3.87;;;13.60;98.20;;;14.16;89.43;98383.59;5092239;28;20459;-77
2021/04/01 09:16:03;;;;;;;5.60;2.70;;;13.70;98.10;;;14.29;88.41;98388.09;5091124;28;20436;-77
2021/04/01 09:18:33;;;;;;;6.07;3.03;;;13.80;97.70;;;14.43;87.75;98387.09;5095358;28;20447;-77
2021/04/01 09:21:05;;;;;;;7.83;3.60;;;14.00;97.70;;;14.56;87.78;98380.00;5093253;28;20446;-77
2021/04/01 09:23:34;;;;;;;11.90;4.47;;;14.10;97.70;;;14.70;87.76;98382.63;5095460;28;20439;-77
2021/04/01 09:26:05;;;;;;;14.87;5.43;;;14.30;97.70;;;14.86;86.99;98387.44;5085653;28;20504;-77
2021/04/01 09:28:37;;;;;;;9.37;4.53;;;14.40;97.40;;;15.02;85.60;98381.75;5096685;28;20551;-78
2021/04/01 09:31:08;;;;;;;21.03;8.23;;;14.60;97.00;;;15.22;86.26;98387.78;5085931;28;20529;-77
2021/04/01 09:33:42;;;;;;;29.23;13.67;;;14.90;97.40;;;15.43;82.02;98384.03;5093690;28;20448;-77
2021/04/01 09:36:12;;;;;;;32.63;14.10;;;15.00;95.80;;;15.58;79.08;98374.88;5087372;28;20938;-77
2021/04/01 09:38:42;;;;;;;43.80;19.37;;;15.20;95.40;;;15.80;74.68;98375.34;5092024;28;20455;-78
2021/04/01 09:41:26;;;;;;;45.13;20.30;;;15.40;94.00;;;16.14;69.00;98371.47;5093342;28;20479;-78
2021/04/01 09:43:54;;;;;;;46.37;20.47;;;15.60;92.00;;;16.36;64.24;98375.38;5094172;28;20443;-78
2021/04/01 09:46:23;;;;;;;52.57;21.60;;;15.90;91.40;;;16.56;62.41;98369.94;5091595;28;20447;-78
2021/04/01 09:49:05;;;;;;;53.63;21.87;;;16.10;91.00;;;16.72;60.49;98371.25;5092124;28;20912;-78
2021/04/01 09:51:34;;;;;;;54.13;21.20;;;16.30;90.40;;;16.83;59.08;98370.53;5086920;28;20511;-77
2021/04/01 09:54:04;;;;;;;48.27;18.83;;;16.40;89.90;;;16.98;57.73;98363.03;5092557;28;20447;-78
2021/04/01 09:56:34;;;;;;;39.67;17.83;;;16.50;88.20;;;17.21;56.07;98367.66;5094525;28;20466;-78
2021/04/01 09:59:02;;;;;;;50.73;19.67;;;16.70;87.80;;;17.34;55.99;98359.56;5095029;28;20443;-78
2021/04/01 10:01:32;;;;;;;46.70;19.20;;;16.90;88.20;;;17.40;55.50;98359.50;5089013;28;20935;-78
2021/04/01 10:04:08;;;;;;;42.73;18.13;;;17.00;87.20;;;17.55;53.11;98354.63;5090459;28;20440;-78
2021/04/01 10:06:42;;;;;;;36.17;16.73;;;17.10;84.30;;;17.67;51.96;98351.25;5088630;28;20454;-78
2021/04/01 10:09:13;;;;;;;42.00;17.83;;;17.10;83.80;;;17.75;50.91;98353.56;5089007;28;20831;-77
2021/04/01 10:11:47;;;;;;;40.03;15.43;;;17.20;82.50;;;17.83;50.42;98354.06;5091849;28;20814;-77
2021/04/01 10:14:16;;;;;;;38.17;18.20;;;17.30;82.90;;;17.89;50.63;98349.69;5097885;28;20974;-78
2021/04/01 10:16:56;;;;;;;41.70;18.63;;;17.40;83.30;;;17.96;48.12;98351.22;5094125;28;20458;-78
2021/04/01 10:19:28;;;;;;;34.67;16.53;;;17.40;79.10;;;18.00;47.37;98347.09;5083003;28;20455;-78
2021/04/01 10:21:56;;;;;;;36.20;17.50;;;17.50;79.30;;;18.03;48.33;98345.81;5093825;28;20458;-78
2021/04/01 10:24:28;;;;;;;35.80;17.37;;;17.50;80.90;;;18.04;49.33;98348.25;5090769;28;20472;-78
2021/04/01 10:27:06;;;;;;;35.57;17.60;;;17.50;81.70;;;18.08;49.74;98348.63;5093418;28;20447;-78
2021/04/01 10:32:35;;;;;;;40.60;17.90;;;17.60;81.00;;;18.27;48.50;98350.13;5080117;28;20451;-78
2021/04/01 10:35:09;;;;;;;45.30;18.33;;;17.70;80.80;;;18.30;47.92;98352.31;5095969;28;20458;-78
2021/04/01 10:37:46;;;;;;;38.27;18.10;;;17.70;80.10;;;18.36;47.83;98342.66;5091076;28;20435;-77
2021/04/01 10:40:16;;;;;;;44.40;17.80;;;17.80;80.10;;;18.42;47.26;98350.50;5092735;28;20539;-78
2021/04/01 10:42:48;;;;;;;36.20;18.13;;;17.90;79.40;;;18.47;46.77;98347.13;5090344;28;20462;-78
2021/04/01 10:45:20;;;;;;;36.77;17.10;;;17.90;78.90;;;18.54;46.93;98347.88;5090802;28;20450;-78
2021/04/01 10:47:57;;;;;;;41.40;18.60;;;18.00;79.30;;;18.56;47.25;98354.56;5093230;28;20443;-78
2021/04/01 10:50:30;;;;;;;36.03;18.03;;;18.00;79.90;;;18.63;48.37;98348.34;5084552;28;20494;-78
2021/04/01 10:52:58;;;;;;;40.60;20.23;;;18.10;80.90;;;18.70;48.09;98356.97;5093818;28;20474;-78
2021/04/01 10:55:31;;;;;;;47.20;21.10;;;18.10;80.40;;;18.79;47.57;98360.88;5091843;28;20449;-78
2021/04/01 10:58:09;;;;;;;41.27;19.37;;;18.20;80.80;;;18.80;47.41;98351.91;5092361;28;20807;-77
2021/04/01 11:00:37;;;;;;;43.93;19.67;;;18.20;80.10;;;18.80;48.14;98338.66;5088459;28;20458;-77
2021/04/01 11:03:13;;;;;;;43.23;20.23;;;18.20;80.80;;;18.82;48.09;98347.97;5090865;28;20861;-78
2021/04/01 11:05:42;;;;;;;40.23;17.80;;;18.20;80.90;;;18.85;47.94;98350.16;5089080;28;20777;-78
2021/04/01 11:08:12;;;;;;;42.27;21.30;;;18.30;80.70;;;18.91;47.91;98353.75;5093511;28;20451;-78
2021/04/01 11:10:42;;;;;;;38.70;18.73;;;18.30;80.20;;;19.00;47.40;98352.31;5095539;28;20486;-77
2021/04/01 11:13:11;;;;;;;43.27;18.60;;;18.40;80.10;;;19.01;47.78;98352.09;5089802;28;20473;-78
2021/04/01 11:15:41;;;;;;;41.17;20.77;;;18.40;80.50;;;19.12;47.22;98360.28;5091277;28;20778;-77
2021/04/01 11:18:15;;;;;;;43.00;17.77;;;18.50;79.80;;;19.14;47.04;98347.56;5088922;28;20443;-78
2021/04/01 11:20:45;;;;;;;38.67;19.20;;;18.50;79.60;;;19.16;46.77;98345.50;5092063;28;20443;-78
2021/04/01 11:23:18;;;;;;;53.40;20.10;;;18.50;79.40;;;19.19;46.27;98345.84;5091094;28;20447;-78
2021/04/01 11:25:48;;;;;;;37.97;18.77;;;18.60;78.30;;;19.22;46.63;98350.69;5091050;28;20444;-78
2021/04/01 11:28:17;;;;;;;40.33;17.50;;;18.60;79.40;;;19.27;46.27;98357.91;5091439;28;20443;-78
2021/04/01 11:30:49;;;;;;;49.63;19.00;;;18.70;78.80;;;19.33;46.20;98357.00;5090573;28;20548;-77
2021/04/01 11:33:21;;;;;;;39.07;18.20;;;18.70;79.40;;;19.33;47.20;98347.16;5094996;28;20496;-78
2021/04/01 11:36:01;;;;;;;43.70;18.40;;;18.70;80.10;;;19.35;47.31;98345.09;5093270;28;20527;-78
2021/04/01 11:38:30;;;;;;;37.90;18.43;;;18.80;80.30;;;19.37;47.50;98343.00;5095988;28;20439;-78
2021/04/01 11:41:03;;;;;;;38.43;17.50;;;18.80;80.40;;;19.44;47.15;98346.34;5095461;28;20479;-78